sensor_id;sensor_type;location;lat;lon;timestamp;temperature;humidity
16964;DHT22;8598;50.508;10.436;2023-04-25T00:00:56;7.80;99.90
16964;DHT22;8598;50.508;10.436;2023-04-25T00:03:23;7.70;99.90
16964;DHT22;8598;50.508;10.436;2023-04-25T00:05:50;7.70;99.90
16964;DHT22;8598;50.508;10.436;2023-04-25T00:08:17;7.70;99.90
16964;DHT22;8598;50.508;10.436;2023-04-25T00:10:44;7.60;99.90
16964;DHT22;8598;50.508;10.436;2023-04-25T00:13:11;7.60;99.90
16964;DHT22;8598;50.508;10.436;2023-04-25T00:15:39;7.70;99.90
16964;DHT22;8598;50.508;10.436;2023-04-25T00:18:06;7.60;99.90
16964;DHT22;8598;50.508;10.436;2023-04-25T00:20:33;7.70;99.90
16964;DHT22;8598;50.508;10.436;2023-04-25T00:23:01;7.60;99.90
16964;DHT22;8598;50.508;10.436;2023-04-25T00:25:28;7.60;99.90
16964;DHT22;8598;50.508;10.436;2023-04-25T00:27:54;7.60;99.90
16964;DHT22;8598;50.508;10.436;2023-04-25T00:30:21;7.60;99.90
16964;DHT22;8598;50.508;10.436;2023-04-25T00:32:49;7.60;99.90
16964;DHT22;8598;50.508;10.436;2023-04-25T00:35:16;7.60;99.90
16964;DHT22;8598;50.508;10.436;2023-04-25T00:37:42;7.60;99.90
16964;DHT22;8598;50.508;10.436;2023-04-25T00:40:09;7.60;99.90
16964;DHT22;8598;50.508;10.436;2023-04-25T00:42:37;7.50;99.90
16964;DHT22;8598;50.508;10.436;2023-04-25T00:45:05;7.50;99.90
16964;DHT22;8598;50.508;10.436;2023-04-25T00:47:33;7.50;99.90
16964;DHT22;8598;50.508;10.436;2023-04-25T00:50:01;7.50;99.90
16964;DHT22;8598;50.508;10.436;2023-04-25T00:52:28;7.50;99.90
16964;DHT22;8598;50.508;10.436;2023-04-25T00:54:55;7.50;99.90
16964;DHT22;8598;50.508;10.436;2023-04-25T00:57:21;7.50;99.90
16964;DHT22;8598;50.508;10.436;2023-04-25T00:59:51;7.50;99.90
16964;DHT22;8598;50.508;10.436;2023-04-25T01:02:18;7.50;99.90
16964;DHT22;8598;50.508;10.436;2023-04-25T01:04:46;7.40;99.90
16964;DHT22;8598;50.508;10.436;2023-04-25T01:07:15;7.40;99.90
16964;DHT22;8598;50.508;10.436;2023-04-25T01:09:41;7.50;99.90
16964;DHT22;8598;50.508;10.436;2023-04-25T01:12:08;7.50;99.90
16964;DHT22;8598;50.508;10.436;2023-04-25T01:14:34;7.40;99.90
16964;DHT22;8598;50.508;10.436;2023-04-25T01:17:01;7.50;99.90
16964;DHT22;8598;50.508;10.436;2023-04-25T01:19:28;7.40;99.90
16964;DHT22;8598;50.508;10.436;2023-04-25T01:21:56;7.40;99.90
16964;DHT22;8598;50.508;10.436;2023-04-25T01:24:23;7.40;99.90
16964;DHT22;8598;50.508;10.436;2023-04-25T01:26:50;7.40;99.90
16964;DHT22;8598;50.508;10.436;2023-04-25T01:29:17;7.50;99.90
16964;DHT22;8598;50.508;10.436;2023-04-25T01:31:44;7.40;99.90
16964;DHT22;8598;50.508;10.436;2023-04-25T01:34:11;7.40;99.90
16964;DHT22;8598;50.508;10.436;2023-04-25T01:36:38;7.40;99.90
16964;DHT22;8598;50.508;10.436;2023-04-25T01:39:06;7.40;99.90
16964;DHT22;8598;50.508;10.436;2023-04-25T01:41:33;7.40;99.90
16964;DHT22;8598;50.508;10.436;2023-04-25T01:44:00;7.40;99.90
16964;DHT22;8598;50.508;10.436;2023-04-25T01:46:27;7.40;99.90
16964;DHT22;8598;50.508;10.436;2023-04-25T01:48:54;7.40;99.90
16964;DHT22;8598;50.508;10.436;2023-04-25T01:51:21;7.40;99.90
16964;DHT22;8598;50.508;10.436;2023-04-25T01:53:47;7.40;99.90
16964;DHT22;8598;50.508;10.436;2023-04-25T01:56:15;7.40;99.90
16964;DHT22;8598;50.508;10.436;2023-04-25T01:58:43;7.40;99.90
16964;DHT22;8598;50.508;10.436;2023-04-25T02:01:10;7.40;99.90
16964;DHT22;8598;50.508;10.436;2023-04-25T02:03:37;7.40;99.90
16964;DHT22;8598;50.508;10.436;2023-04-25T02:06:04;7.30;99.90
16964;DHT22;8598;50.508;10.436;2023-04-25T02:08:30;7.30;99.90
16964;DHT22;8598;50.508;10.436;2023-04-25T02:10:57;7.30;99.90
16964;DHT22;8598;50.508;10.436;2023-04-25T02:13:25;7.30;99.90
16964;DHT22;8598;50.508;10.436;2023-04-25T02:15:51;7.30;99.90
16964;DHT22;8598;50.508;10.436;2023-04-25T02:18:18;7.20;99.90
16964;DHT22;8598;50.508;10.436;2023-04-25T02:20:46;7.20;99.90
16964;DHT22;8598;50.508;10.436;2023-04-25T02:23:13;7.20;99.90
16964;DHT22;8598;50.508;10.436;2023-04-25T02:25:40;7.20;99.90
16964;DHT22;8598;50.508;10.436;2023-04-25T02:28:07;7.10;99.90
16964;DHT22;8598;50.508;10.436;2023-04-25T02:30:35;7.10;99.90
16964;DHT22;8598;50.508;10.436;2023-04-25T02:33:01;7.10;99.90
16964;DHT22;8598;50.508;10.436;2023-04-25T02:35:28;7.10;99.90
16964;DHT22;8598;50.508;10.436;2023-04-25T02:37:55;7.10;99.90
16964;DHT22;8598;50.508;10.436;2023-04-25T02:40:21;7.10;99.90
16964;DHT22;8598;50.508;10.436;2023-04-25T02:42:48;7.00;99.90
16964;DHT22;8598;50.508;10.436;2023-04-25T02:45:15;7.00;99.90
16964;DHT22;8598;50.508;10.436;2023-04-25T02:47:42;7.00;99.90
16964;DHT22;8598;50.508;10.436;2023-04-25T02:50:09;7.00;99.90
16964;DHT22;8598;50.508;10.436;2023-04-25T02:52:36;7.00;99.90
16964;DHT22;8598;50.508;10.436;2023-04-25T02:55:03;6.90;99.90
16964;DHT22;8598;50.508;10.436;2023-04-25T02:57:30;7.00;99.90
16964;DHT22;8598;50.508;10.436;2023-04-25T02:59:56;7.00;99.90
16964;DHT22;8598;50.508;10.436;2023-04-25T03:02:23;7.00;99.90
16964;DHT22;8598;50.508;10.436;2023-04-25T03:04:51;7.00;99.90
16964;DHT22;8598;50.508;10.436;2023-04-25T03:07:17;7.00;99.90
16964;DHT22;8598;50.508;10.436;2023-04-25T03:09:44;6.90;99.90
16964;DHT22;8598;50.508;10.436;2023-04-25T03:12:11;6.90;99.90
16964;DHT22;8598;50.508;10.436;2023-04-25T03:14:37;6.90;99.90
16964;DHT22;8598;50.508;10.436;2023-04-25T03:17:04;6.80;99.90
16964;DHT22;8598;50.508;10.436;2023-04-25T03:19:31;6.80;99.90
16964;DHT22;8598;50.508;10.436;2023-04-25T03:21:59;6.70;99.90
16964;DHT22;8598;50.508;10.436;2023-04-25T03:24:25;6.70;99.90
16964;DHT22;8598;50.508;10.436;2023-04-25T03:26:52;6.70;99.90
16964;DHT22;8598;50.508;10.436;2023-04-25T03:29:19;6.70;99.90
16964;DHT22;8598;50.508;10.436;2023-04-25T03:31:49;6.60;99.90
16964;DHT22;8598;50.508;10.436;2023-04-25T03:34:16;6.60;99.90
16964;DHT22;8598;50.508;10.436;2023-04-25T03:36:42;6.60;99.90
16964;DHT22;8598;50.508;10.436;2023-04-25T03:39:10;6.60;99.90
16964;DHT22;8598;50.508;10.436;2023-04-25T03:41:37;6.60;99.90
16964;DHT22;8598;50.508;10.436;2023-04-25T03:44:04;6.60;99.90
16964;DHT22;8598;50.508;10.436;2023-04-25T03:46:30;6.60;99.90
16964;DHT22;8598;50.508;10.436;2023-04-25T03:48:57;6.50;99.90
16964;DHT22;8598;50.508;10.436;2023-04-25T03:51:24;6.50;99.90
16964;DHT22;8598;50.508;10.436;2023-04-25T03:53:51;6.50;99.90
16964;DHT22;8598;50.508;10.436;2023-04-25T03:56:19;6.50;99.90
16964;DHT22;8598;50.508;10.436;2023-04-25T03:58:46;6.40;99.90
16964;DHT22;8598;50.508;10.436;2023-04-25T04:01:13;6.40;99.90
16964;DHT22;8598;50.508;10.436;2023-04-25T04:03:40;6.40;99.90
16964;DHT22;8598;50.508;10.436;2023-04-25T04:06:07;6.40;99.90
16964;DHT22;8598;50.508;10.436;2023-04-25T04:08:36;6.40;99.90
16964;DHT22;8598;50.508;10.436;2023-04-25T04:11:02;6.40;99.90
16964;DHT22;8598;50.508;10.436;2023-04-25T04:13:30;6.50;99.90
16964;DHT22;8598;50.508;10.436;2023-04-25T04:15:57;6.50;99.90
16964;DHT22;8598;50.508;10.436;2023-04-25T04:18:24;6.60;99.90
16964;DHT22;8598;50.508;10.436;2023-04-25T04:20:51;6.60;99.90
16964;DHT22;8598;50.508;10.436;2023-04-25T04:23:17;6.60;99.90
16964;DHT22;8598;50.508;10.436;2023-04-25T04:25:44;6.70;99.90
16964;DHT22;8598;50.508;10.436;2023-04-25T04:28:11;6.60;99.90
16964;DHT22;8598;50.508;10.436;2023-04-25T04:30:39;6.70;99.90
16964;DHT22;8598;50.508;10.436;2023-04-25T04:33:06;6.70;99.90
16964;DHT22;8598;50.508;10.436;2023-04-25T04:35:33;6.60;99.90
16964;DHT22;8598;50.508;10.436;2023-04-25T04:38:00;6.60;99.90
16964;DHT22;8598;50.508;10.436;2023-04-25T04:40:27;6.70;99.90
16964;DHT22;8598;50.508;10.436;2023-04-25T04:42:55;6.70;99.90
16964;DHT22;8598;50.508;10.436;2023-04-25T04:45:22;6.70;99.90
16964;DHT22;8598;50.508;10.436;2023-04-25T04:47:50;6.80;99.90
16964;DHT22;8598;50.508;10.436;2023-04-25T04:50:17;6.90;99.90
16964;DHT22;8598;50.508;10.436;2023-04-25T04:52:44;7.00;99.90
16964;DHT22;8598;50.508;10.436;2023-04-25T04:55:11;7.10;99.90
16964;DHT22;8598;50.508;10.436;2023-04-25T04:57:37;7.10;99.90
16964;DHT22;8598;50.508;10.436;2023-04-25T05:00:05;7.10;99.90
16964;DHT22;8598;50.508;10.436;2023-04-25T05:02:36;7.10;99.90
16964;DHT22;8598;50.508;10.436;2023-04-25T05:05:04;7.10;99.90
16964;DHT22;8598;50.508;10.436;2023-04-25T05:07:31;7.10;99.90
16964;DHT22;8598;50.508;10.436;2023-04-25T05:09:58;7.20;99.90
16964;DHT22;8598;50.508;10.436;2023-04-25T05:12:24;7.10;99.90
16964;DHT22;8598;50.508;10.436;2023-04-25T05:14:51;7.20;99.90
16964;DHT22;8598;50.508;10.436;2023-04-25T05:17:18;7.30;99.90
16964;DHT22;8598;50.508;10.436;2023-04-25T05:19:44;7.30;99.90
16964;DHT22;8598;50.508;10.436;2023-04-25T05:22:12;7.30;99.90
16964;DHT22;8598;50.508;10.436;2023-04-25T05:24:39;7.30;99.90
16964;DHT22;8598;50.508;10.436;2023-04-25T05:27:05;7.40;99.90
16964;DHT22;8598;50.508;10.436;2023-04-25T05:29:32;7.40;99.90
16964;DHT22;8598;50.508;10.436;2023-04-25T05:31:59;7.40;99.90
16964;DHT22;8598;50.508;10.436;2023-04-25T05:34:25;7.40;99.90
16964;DHT22;8598;50.508;10.436;2023-04-25T05:36:52;7.50;99.90
16964;DHT22;8598;50.508;10.436;2023-04-25T05:39:20;7.50;99.90
16964;DHT22;8598;50.508;10.436;2023-04-25T05:41:46;7.30;99.90
16964;DHT22;8598;50.508;10.436;2023-04-25T05:44:13;7.30;99.90
16964;DHT22;8598;50.508;10.436;2023-04-25T05:46:41;7.30;99.90
16964;DHT22;8598;50.508;10.436;2023-04-25T05:49:07;7.20;99.90
16964;DHT22;8598;50.508;10.436;2023-04-25T05:51:34;7.10;99.90
16964;DHT22;8598;50.508;10.436;2023-04-25T05:54:01;7.20;99.90
16964;DHT22;8598;50.508;10.436;2023-04-25T05:56:29;7.30;99.90
16964;DHT22;8598;50.508;10.436;2023-04-25T05:58:55;7.40;99.90
16964;DHT22;8598;50.508;10.436;2023-04-25T06:01:22;7.60;99.90
16964;DHT22;8598;50.508;10.436;2023-04-25T06:03:49;7.50;99.90
16964;DHT22;8598;50.508;10.436;2023-04-25T06:06:16;7.60;99.90
16964;DHT22;8598;50.508;10.436;2023-04-25T06:08:43;7.50;99.90
16964;DHT22;8598;50.508;10.436;2023-04-25T06:11:10;7.30;99.90
16964;DHT22;8598;50.508;10.436;2023-04-25T06:13:38;7.30;99.90
16964;DHT22;8598;50.508;10.436;2023-04-25T06:16:05;7.30;99.90
16964;DHT22;8598;50.508;10.436;2023-04-25T06:18:32;7.00;99.90
16964;DHT22;8598;50.508;10.436;2023-04-25T06:20:59;6.80;99.90
16964;DHT22;8598;50.508;10.436;2023-04-25T06:23:26;6.80;99.90
16964;DHT22;8598;50.508;10.436;2023-04-25T06:25:53;6.90;99.90
16964;DHT22;8598;50.508;10.436;2023-04-25T06:28:19;7.00;99.90
16964;DHT22;8598;50.508;10.436;2023-04-25T06:30:48;7.10;99.90
16964;DHT22;8598;50.508;10.436;2023-04-25T06:33:15;7.10;99.90
16964;DHT22;8598;50.508;10.436;2023-04-25T06:35:42;7.20;99.90
16964;DHT22;8598;50.508;10.436;2023-04-25T06:38:08;7.10;99.90
16964;DHT22;8598;50.508;10.436;2023-04-25T06:40:35;7.20;99.90
16964;DHT22;8598;50.508;10.436;2023-04-25T06:43:02;7.00;99.90
16964;DHT22;8598;50.508;10.436;2023-04-25T06:45:28;6.90;99.90
16964;DHT22;8598;50.508;10.436;2023-04-25T06:47:56;6.90;99.90
16964;DHT22;8598;50.508;10.436;2023-04-25T06:50:23;6.70;99.90
16964;DHT22;8598;50.508;10.436;2023-04-25T06:52:50;6.70;99.90
16964;DHT22;8598;50.508;10.436;2023-04-25T06:55:16;6.60;99.90
16964;DHT22;8598;50.508;10.436;2023-04-25T06:57:43;6.60;99.90
16964;DHT22;8598;50.508;10.436;2023-04-25T07:00:10;6.60;99.90
16964;DHT22;8598;50.508;10.436;2023-04-25T07:02:37;6.70;99.90
16964;DHT22;8598;50.508;10.436;2023-04-25T07:05:05;6.90;99.90
16964;DHT22;8598;50.508;10.436;2023-04-25T07:07:32;6.90;99.90
16964;DHT22;8598;50.508;10.436;2023-04-25T07:09:59;6.90;99.90
16964;DHT22;8598;50.508;10.436;2023-04-25T07:12:26;7.00;99.90
16964;DHT22;8598;50.508;10.436;2023-04-25T07:14:52;7.10;99.90
16964;DHT22;8598;50.508;10.436;2023-04-25T07:17:19;7.10;99.90
16964;DHT22;8598;50.508;10.436;2023-04-25T07:19:45;7.10;99.90
16964;DHT22;8598;50.508;10.436;2023-04-25T07:22:13;7.10;99.90
16964;DHT22;8598;50.508;10.436;2023-04-25T07:24:40;7.10;99.90
16964;DHT22;8598;50.508;10.436;2023-04-25T07:27:07;7.00;99.90
16964;DHT22;8598;50.508;10.436;2023-04-25T07:29:33;7.20;99.90
16964;DHT22;8598;50.508;10.436;2023-04-25T07:32:02;7.10;99.90
16964;DHT22;8598;50.508;10.436;2023-04-25T07:34:29;7.20;99.90
16964;DHT22;8598;50.508;10.436;2023-04-25T07:36:57;7.40;99.90
16964;DHT22;8598;50.508;10.436;2023-04-25T07:39:26;7.50;99.90
16964;DHT22;8598;50.508;10.436;2023-04-25T07:41:52;7.60;99.90
16964;DHT22;8598;50.508;10.436;2023-04-25T07:44:19;7.60;99.90
16964;DHT22;8598;50.508;10.436;2023-04-25T07:46:45;7.70;99.90
16964;DHT22;8598;50.508;10.436;2023-04-25T07:49:12;7.80;99.90
16964;DHT22;8598;50.508;10.436;2023-04-25T07:51:38;8.00;99.90
16964;DHT22;8598;50.508;10.436;2023-04-25T07:54:06;7.90;99.90
16964;DHT22;8598;50.508;10.436;2023-04-25T07:56:34;8.00;99.90
16964;DHT22;8598;50.508;10.436;2023-04-25T07:59:01;8.10;99.90
16964;DHT22;8598;50.508;10.436;2023-04-25T08:01:28;8.20;99.90
16964;DHT22;8598;50.508;10.436;2023-04-25T08:03:54;8.20;99.90
16964;DHT22;8598;50.508;10.436;2023-04-25T08:06:21;8.50;99.90
16964;DHT22;8598;50.508;10.436;2023-04-25T08:08:48;8.70;99.90
16964;DHT22;8598;50.508;10.436;2023-04-25T08:11:14;8.60;99.90
16964;DHT22;8598;50.508;10.436;2023-04-25T08:13:42;8.70;99.90
16964;DHT22;8598;50.508;10.436;2023-04-25T08:16:09;8.60;99.90
16964;DHT22;8598;50.508;10.436;2023-04-25T08:18:35;8.50;99.90
16964;DHT22;8598;50.508;10.436;2023-04-25T08:21:02;8.70;99.90
16964;DHT22;8598;50.508;10.436;2023-04-25T08:23:29;9.00;99.90
16964;DHT22;8598;50.508;10.436;2023-04-25T08:25:56;8.80;99.90
16964;DHT22;8598;50.508;10.436;2023-04-25T08:28:22;8.70;99.90
16964;DHT22;8598;50.508;10.436;2023-04-25T08:30:50;8.50;99.90
16964;DHT22;8598;50.508;10.436;2023-04-25T08:33:17;8.50;99.90
16964;DHT22;8598;50.508;10.436;2023-04-25T08:35:44;8.60;99.90
16964;DHT22;8598;50.508;10.436;2023-04-25T08:38:11;8.70;99.90
16964;DHT22;8598;50.508;10.436;2023-04-25T08:40:39;8.70;99.90
16964;DHT22;8598;50.508;10.436;2023-04-25T08:43:06;8.90;99.90
16964;DHT22;8598;50.508;10.436;2023-04-25T08:45:39;8.90;99.90
16964;DHT22;8598;50.508;10.436;2023-04-25T08:48:11;9.40;99.90
16964;DHT22;8598;50.508;10.436;2023-04-25T08:50:39;9.40;99.90
16964;DHT22;8598;50.508;10.436;2023-04-25T08:53:09;9.70;99.90
16964;DHT22;8598;50.508;10.436;2023-04-25T08:55:37;9.40;99.90
16964;DHT22;8598;50.508;10.436;2023-04-25T08:58:05;9.40;99.90
16964;DHT22;8598;50.508;10.436;2023-04-25T09:00:32;9.30;99.90
16964;DHT22;8598;50.508;10.436;2023-04-25T09:02:59;9.10;99.90
16964;DHT22;8598;50.508;10.436;2023-04-25T09:05:28;8.90;99.90
16964;DHT22;8598;50.508;10.436;2023-04-25T09:07:55;8.80;99.90
16964;DHT22;8598;50.508;10.436;2023-04-25T09:10:21;8.70;99.90
16964;DHT22;8598;50.508;10.436;2023-04-25T09:13:02;9.10;99.90
16964;DHT22;8598;50.508;10.436;2023-04-25T09:15:30;9.00;99.90
16964;DHT22;8598;50.508;10.436;2023-04-25T09:17:56;8.90;99.90
16964;DHT22;8598;50.508;10.436;2023-04-25T09:20:23;8.80;99.90
16964;DHT22;8598;50.508;10.436;2023-04-25T09:23:03;9.10;99.90
16964;DHT22;8598;50.508;10.436;2023-04-25T09:25:34;9.20;99.90
16964;DHT22;8598;50.508;10.436;2023-04-25T09:28:05;9.50;99.90
16964;DHT22;8598;50.508;10.436;2023-04-25T09:30:33;9.30;99.90
16964;DHT22;8598;50.508;10.436;2023-04-25T09:33:09;9.00;99.90
16964;DHT22;8598;50.508;10.436;2023-04-25T09:35:36;8.90;99.90
16964;DHT22;8598;50.508;10.436;2023-04-25T09:38:09;8.90;99.90
16964;DHT22;8598;50.508;10.436;2023-04-25T09:40:39;8.90;99.90
16964;DHT22;8598;50.508;10.436;2023-04-25T09:43:09;9.00;99.90
16964;DHT22;8598;50.508;10.436;2023-04-25T09:45:41;9.40;99.90
16964;DHT22;8598;50.508;10.436;2023-04-25T09:48:11;9.60;99.90
16964;DHT22;8598;50.508;10.436;2023-04-25T09:50:38;9.50;99.90
16964;DHT22;8598;50.508;10.436;2023-04-25T09:53:05;9.00;99.90
16964;DHT22;8598;50.508;10.436;2023-04-25T09:55:34;8.70;99.90
16964;DHT22;8598;50.508;10.436;2023-04-25T09:58:04;8.70;99.90
16964;DHT22;8598;50.508;10.436;2023-04-25T10:00:32;8.60;99.90
16964;DHT22;8598;50.508;10.436;2023-04-25T10:03:01;8.50;99.90
16964;DHT22;8598;50.508;10.436;2023-04-25T10:05:30;8.60;99.90
16964;DHT22;8598;50.508;10.436;2023-04-25T10:07:59;8.70;99.90
16964;DHT22;8598;50.508;10.436;2023-04-25T10:10:28;9.00;99.90
16964;DHT22;8598;50.508;10.436;2023-04-25T10:13:00;9.10;99.90
16964;DHT22;8598;50.508;10.436;2023-04-25T10:15:27;9.60;99.90
16964;DHT22;8598;50.508;10.436;2023-04-25T10:17:55;10.30;99.90
16964;DHT22;8598;50.508;10.436;2023-04-25T10:20:22;10.40;99.90
16964;DHT22;8598;50.508;10.436;2023-04-25T10:22:52;10.00;99.90
16964;DHT22;8598;50.508;10.436;2023-04-25T10:25:22;9.90;99.90
16964;DHT22;8598;50.508;10.436;2023-04-25T10:27:50;9.80;99.90
16964;DHT22;8598;50.508;10.436;2023-04-25T10:30:18;9.70;99.90
16964;DHT22;8598;50.508;10.436;2023-04-25T10:32:45;9.80;99.90
16964;DHT22;8598;50.508;10.436;2023-04-25T10:35:16;10.00;99.90
16964;DHT22;8598;50.508;10.436;2023-04-25T10:38:00;10.20;99.90
16964;DHT22;8598;50.508;10.436;2023-04-25T10:40:29;10.60;99.90
16964;DHT22;8598;50.508;10.436;2023-04-25T10:42:55;10.60;99.90
16964;DHT22;8598;50.508;10.436;2023-04-25T10:45:52;10.90;99.90
16964;DHT22;8598;50.508;10.436;2023-04-25T10:48:25;10.80;99.90
16964;DHT22;8598;50.508;10.436;2023-04-25T10:51:06;10.70;99.90
16964;DHT22;8598;50.508;10.436;2023-04-25T10:53:33;10.80;99.90
16964;DHT22;8598;50.508;10.436;2023-04-25T10:56:00;10.50;99.90
16964;DHT22;8598;50.508;10.436;2023-04-25T10:58:27;10.30;99.90
16964;DHT22;8598;50.508;10.436;2023-04-25T11:00:55;10.20;99.90
16964;DHT22;8598;50.508;10.436;2023-04-25T11:03:22;10.10;99.90
16964;DHT22;8598;50.508;10.436;2023-04-25T11:05:50;10.20;99.90
16964;DHT22;8598;50.508;10.436;2023-04-25T11:08:29;10.20;99.90
16964;DHT22;8598;50.508;10.436;2023-04-25T11:11:01;10.20;99.90
16964;DHT22;8598;50.508;10.436;2023-04-25T11:13:29;10.00;99.90
16964;DHT22;8598;50.508;10.436;2023-04-25T11:15:57;10.00;99.90
16964;DHT22;8598;50.508;10.436;2023-04-25T11:18:26;9.70;99.90
16964;DHT22;8598;50.508;10.436;2023-04-25T11:20:52;9.40;99.90
16964;DHT22;8598;50.508;10.436;2023-04-25T11:23:19;9.50;99.90
16964;DHT22;8598;50.508;10.436;2023-04-25T11:25:46;9.70;99.90
16964;DHT22;8598;50.508;10.436;2023-04-25T11:28:12;9.90;99.90
16964;DHT22;8598;50.508;10.436;2023-04-25T11:30:39;10.20;99.90
16964;DHT22;8598;50.508;10.436;2023-04-25T11:33:09;10.40;99.90
16964;DHT22;8598;50.508;10.436;2023-04-25T11:35:36;9.80;99.90
16964;DHT22;8598;50.508;10.436;2023-04-25T11:38:02;9.80;99.90
16964;DHT22;8598;50.508;10.436;2023-04-25T11:40:30;9.70;99.90
16964;DHT22;8598;50.508;10.436;2023-04-25T11:43:00;9.60;99.90
16964;DHT22;8598;50.508;10.436;2023-04-25T11:45:26;9.40;99.90
16964;DHT22;8598;50.508;10.436;2023-04-25T11:47:54;9.30;99.90
16964;DHT22;8598;50.508;10.436;2023-04-25T11:50:22;9.20;99.90
16964;DHT22;8598;50.508;10.436;2023-04-25T11:52:49;9.30;99.90
16964;DHT22;8598;50.508;10.436;2023-04-25T11:55:17;9.10;99.90
16964;DHT22;8598;50.508;10.436;2023-04-25T11:57:47;8.90;99.90
16964;DHT22;8598;50.508;10.436;2023-04-25T12:00:15;8.70;99.90
16964;DHT22;8598;50.508;10.436;2023-04-25T12:02:43;8.70;99.90
16964;DHT22;8598;50.508;10.436;2023-04-25T12:05:11;9.00;99.90
16964;DHT22;8598;50.508;10.436;2023-04-25T12:07:39;9.20;99.90
16964;DHT22;8598;50.508;10.436;2023-04-25T12:10:07;9.40;99.90
16964;DHT22;8598;50.508;10.436;2023-04-25T12:12:34;9.50;99.90
16964;DHT22;8598;50.508;10.436;2023-04-25T12:15:12;9.80;99.90
16964;DHT22;8598;50.508;10.436;2023-04-25T12:17:41;9.80;99.90
16964;DHT22;8598;50.508;10.436;2023-04-25T12:20:09;9.80;99.90
16964;DHT22;8598;50.508;10.436;2023-04-25T12:22:36;10.10;99.90
16964;DHT22;8598;50.508;10.436;2023-04-25T12:25:05;10.40;99.90
16964;DHT22;8598;50.508;10.436;2023-04-25T12:27:32;10.20;99.90
16964;DHT22;8598;50.508;10.436;2023-04-25T12:30:01;10.40;99.90
16964;DHT22;8598;50.508;10.436;2023-04-25T12:32:29;10.40;99.90
16964;DHT22;8598;50.508;10.436;2023-04-25T12:34:56;10.50;99.90
16964;DHT22;8598;50.508;10.436;2023-04-25T12:37:23;10.70;99.90
16964;DHT22;8598;50.508;10.436;2023-04-25T12:39:49;10.80;99.90
16964;DHT22;8598;50.508;10.436;2023-04-25T12:42:18;10.70;99.90
16964;DHT22;8598;50.508;10.436;2023-04-25T12:44:44;10.80;99.90
16964;DHT22;8598;50.508;10.436;2023-04-25T12:47:11;10.90;99.90
16964;DHT22;8598;50.508;10.436;2023-04-25T12:49:38;11.30;99.90
16964;DHT22;8598;50.508;10.436;2023-04-25T12:52:05;11.00;99.90
16964;DHT22;8598;50.508;10.436;2023-04-25T12:54:31;11.10;99.90
16964;DHT22;8598;50.508;10.436;2023-04-25T12:56:58;10.40;99.90
16964;DHT22;8598;50.508;10.436;2023-04-25T12:59:28;10.10;99.90
16964;DHT22;8598;50.508;10.436;2023-04-25T13:01:54;9.90;99.90
16964;DHT22;8598;50.508;10.436;2023-04-25T13:04:21;9.80;99.90
16964;DHT22;8598;50.508;10.436;2023-04-25T13:06:48;10.20;99.90
16964;DHT22;8598;50.508;10.436;2023-04-25T13:09:14;10.50;99.90
16964;DHT22;8598;50.508;10.436;2023-04-25T13:11:41;9.90;99.90
16964;DHT22;8598;50.508;10.436;2023-04-25T13:14:08;10.20;99.90
16964;DHT22;8598;50.508;10.436;2023-04-25T13:16:36;9.90;99.90
16964;DHT22;8598;50.508;10.436;2023-04-25T13:19:02;9.90;99.90
16964;DHT22;8598;50.508;10.436;2023-04-25T13:21:30;9.90;99.90
16964;DHT22;8598;50.508;10.436;2023-04-25T13:23:57;10.00;99.90
16964;DHT22;8598;50.508;10.436;2023-04-25T13:26:24;10.10;99.90
16964;DHT22;8598;50.508;10.436;2023-04-25T13:28:51;10.30;99.90
16964;DHT22;8598;50.508;10.436;2023-04-25T13:31:17;10.10;99.90
16964;DHT22;8598;50.508;10.436;2023-04-25T13:33:45;10.30;99.90
16964;DHT22;8598;50.508;10.436;2023-04-25T13:36:12;10.00;99.90
16964;DHT22;8598;50.508;10.436;2023-04-25T13:38:39;9.80;99.90
16964;DHT22;8598;50.508;10.436;2023-04-25T13:41:09;9.90;99.90
16964;DHT22;8598;50.508;10.436;2023-04-25T13:43:36;10.30;99.90
16964;DHT22;8598;50.508;10.436;2023-04-25T13:46:03;10.50;99.90
16964;DHT22;8598;50.508;10.436;2023-04-25T13:48:29;10.60;99.90
16964;DHT22;8598;50.508;10.436;2023-04-25T13:50:57;10.70;99.90
16964;DHT22;8598;50.508;10.436;2023-04-25T13:53:24;10.80;99.90
16964;DHT22;8598;50.508;10.436;2023-04-25T13:55:51;10.60;99.90
16964;DHT22;8598;50.508;10.436;2023-04-25T13:58:18;10.80;99.90
16964;DHT22;8598;50.508;10.436;2023-04-25T14:00:45;10.80;99.90
16964;DHT22;8598;50.508;10.436;2023-04-25T14:03:12;11.00;99.90
16964;DHT22;8598;50.508;10.436;2023-04-25T14:05:39;11.40;99.90
16964;DHT22;8598;50.508;10.436;2023-04-25T14:08:08;11.40;99.90
16964;DHT22;8598;50.508;10.436;2023-04-25T14:10:36;11.30;99.90
16964;DHT22;8598;50.508;10.436;2023-04-25T14:13:03;10.90;99.90
16964;DHT22;8598;50.508;10.436;2023-04-25T14:15:31;10.50;99.90
16964;DHT22;8598;50.508;10.436;2023-04-25T14:17:58;10.30;99.90
16964;DHT22;8598;50.508;10.436;2023-04-25T14:20:25;10.30;99.90
16964;DHT22;8598;50.508;10.436;2023-04-25T14:22:52;10.40;99.90
16964;DHT22;8598;50.508;10.436;2023-04-25T14:25:21;10.40;99.90
16964;DHT22;8598;50.508;10.436;2023-04-25T14:27:48;10.50;99.90
16964;DHT22;8598;50.508;10.436;2023-04-25T14:30:16;10.40;99.90
16964;DHT22;8598;50.508;10.436;2023-04-25T14:32:43;10.30;99.90
16964;DHT22;8598;50.508;10.436;2023-04-25T14:35:11;10.20;99.90
16964;DHT22;8598;50.508;10.436;2023-04-25T14:37:38;10.30;99.90
16964;DHT22;8598;50.508;10.436;2023-04-25T14:40:06;10.30;99.90
16964;DHT22;8598;50.508;10.436;2023-04-25T14:42:35;10.20;99.90
16964;DHT22;8598;50.508;10.436;2023-04-25T14:45:02;10.30;99.90
16964;DHT22;8598;50.508;10.436;2023-04-25T14:47:29;10.50;99.90
16964;DHT22;8598;50.508;10.436;2023-04-25T14:49:56;10.60;99.90
16964;DHT22;8598;50.508;10.436;2023-04-25T14:52:23;11.10;99.90
16964;DHT22;8598;50.508;10.436;2023-04-25T14:54:51;11.20;99.90
16964;DHT22;8598;50.508;10.436;2023-04-25T14:57:17;11.20;99.90
16964;DHT22;8598;50.508;10.436;2023-04-25T14:59:45;11.00;99.90
16964;DHT22;8598;50.508;10.436;2023-04-25T15:02:12;10.80;99.90
16964;DHT22;8598;50.508;10.436;2023-04-25T15:04:39;10.60;99.90
16964;DHT22;8598;50.508;10.436;2023-04-25T15:07:05;10.30;99.90
16964;DHT22;8598;50.508;10.436;2023-04-25T15:09:32;10.20;99.90
16964;DHT22;8598;50.508;10.436;2023-04-25T15:11:59;10.00;99.90
16964;DHT22;8598;50.508;10.436;2023-04-25T15:14:25;10.10;99.90
16964;DHT22;8598;50.508;10.436;2023-04-25T15:16:53;10.10;99.90
16964;DHT22;8598;50.508;10.436;2023-04-25T15:19:20;10.20;99.90
16964;DHT22;8598;50.508;10.436;2023-04-25T15:21:47;10.10;99.90
16964;DHT22;8598;50.508;10.436;2023-04-25T15:24:13;10.20;99.90
16964;DHT22;8598;50.508;10.436;2023-04-25T15:26:41;10.00;99.90
16964;DHT22;8598;50.508;10.436;2023-04-25T15:29:08;9.70;99.90
16964;DHT22;8598;50.508;10.436;2023-04-25T15:31:35;9.60;99.90
16964;DHT22;8598;50.508;10.436;2023-04-25T15:34:02;9.70;99.90
16964;DHT22;8598;50.508;10.436;2023-04-25T15:36:29;9.90;99.90
16964;DHT22;8598;50.508;10.436;2023-04-25T15:38:56;9.80;99.90
16964;DHT22;8598;50.508;10.436;2023-04-25T15:41:23;9.80;99.90
16964;DHT22;8598;50.508;10.436;2023-04-25T15:43:52;9.90;99.90